createdAt,value
2019-02-11T00:00:50.969Z,96691.59
2019-02-11T00:01:52.703Z,96691.59
2019-02-11T00:02:55.026Z,96699.08
2019-02-11T00:03:59.729Z,96699.08
2019-02-11T00:04:59.550Z,96698.48
2019-02-11T00:06:00.960Z,96696.92
2019-02-11T00:07:02.410Z,96698.54
2019-02-11T00:08:03.792Z,96698.54
2019-02-11T00:09:07.302Z,96698.54
2019-02-11T00:10:09.338Z,96702.81
2019-02-11T00:11:10.868Z,96702.81
2019-02-11T00:12:12.302Z,96698.31
2019-02-11T00:13:13.714Z,96694.82
2019-02-11T00:14:15.191Z,96700.47
2019-02-11T00:15:16.471Z,96700.47
2019-02-11T00:16:19.062Z,96695.92
2019-02-11T00:17:20.442Z,96695.14
2019-02-11T00:18:22.066Z,96694.59
2019-02-11T00:19:23.398Z,96699.42
2019-02-11T00:20:24.664Z,96702.08
2019-02-11T00:21:25.952Z,96700.75
2019-02-11T00:22:27.219Z,96700.75
2019-02-11T00:23:28.668Z,96705.54
2019-02-11T00:24:30.035Z,96705.03
2019-02-11T00:25:31.390Z,96701.26
2019-02-11T00:26:33.056Z,96706.59
2019-02-11T00:27:36.430Z,96705.54
2019-02-11T00:28:37.860Z,96706.59
2019-02-11T00:29:39.470Z,96699.64
2019-02-11T00:30:40.802Z,96706.31
2019-02-11T00:31:42.142Z,96698.54
2019-02-11T00:32:43.439Z,96702.03
2019-02-11T00:33:44.743Z,96700.16
2019-02-11T00:34:46.178Z,96704.15
2019-02-11T00:35:47.495Z,96698.82
2019-02-11T00:36:48.735Z,96698.82
2019-02-11T00:37:50.061Z,96707.13
2019-02-11T00:38:51.340Z,96707.41
2019-02-11T00:39:52.753Z,96708.46
2019-02-11T00:40:53.995Z,96692.47
2019-02-11T00:41:55.371Z,96698.82
2019-02-11T00:42:56.949Z,96698.82
2019-02-11T00:43:58.383Z,96695.92
2019-02-11T00:44:59.905Z,96695.92
2019-02-11T00:46:01.343Z,96691.42
2019-02-11T00:47:02.673Z,96694.88
2019-02-11T00:48:04.045Z,96686.88
2019-02-11T00:49:05.562Z,96686.09
2019-02-11T00:50:09.093Z,96686.09
2019-02-11T00:51:10.431Z,96683.42
2019-02-11T00:52:12.118Z,96687.20
2019-02-11T00:53:13.438Z,96687.20
2019-02-11T00:54:14.853Z,96678.09
2019-02-11T00:55:16.159Z,96678.09
2019-02-11T00:56:17.541Z,96669.28
2019-02-11T00:57:19.037Z,96669.28
2019-02-11T00:58:20.362Z,96669.28
2019-02-11T00:59:21.627Z,96664.77
2019-02-11T01:00:23.095Z,96670.10
2019-02-11T01:01:24.559Z,96667.20
2019-02-11T01:02:25.864Z,96667.20
2019-02-11T01:03:27.534Z,96664.00
2019-02-11T01:04:28.852Z,96669.87
2019-02-11T01:05:30.112Z,96662.95
2019-02-11T01:06:31.795Z,96662.95
2019-02-11T01:07:33.151Z,96662.95
2019-02-11T01:08:34.431Z,96658.67
2019-02-11T01:09:37.439Z,96646.86
2019-02-11T01:10:38.796Z,96654.67
2019-02-11T01:11:40.267Z,96651.22
2019-02-11T01:12:41.654Z,96651.22
2019-02-11T01:13:42.972Z,96646.91
2019-02-11T01:14:44.358Z,96641.30
2019-02-11T01:15:45.648Z,96643.45
2019-02-11T01:16:46.950Z,96640.78
2019-02-11T01:17:48.234Z,96641.06
2019-02-11T01:18:49.514Z,96645.06
2019-02-11T01:19:50.907Z,96645.06
2019-02-11T01:20:52.192Z,96641.06
2019-02-11T01:21:53.668Z,96645.06
2019-02-11T01:22:57.336Z,96644.24
2019-02-11T01:23:58.645Z,96647.73
2019-02-11T01:25:00.253Z,96649.89
2019-02-11T01:26:01.517Z,96640.78
2019-02-11T01:27:03.163Z,96645.34
2019-02-11T01:28:04.536Z,96645.34
2019-02-11T01:29:05.830Z,96636.02
2019-02-11T01:30:09.860Z,96627.23
2019-02-11T01:31:13.552Z,96627.73
2019-02-11T01:32:15.109Z,96613.91
2019-02-11T01:33:16.572Z,96616.57
2019-02-11T01:34:17.822Z,96618.41
2019-02-11T01:35:19.353Z,96618.41
2019-02-11T01:36:20.891Z,96608.80
2019-02-11T01:37:22.164Z,96602.42
2019-02-11T01:38:23.765Z,96602.42
2019-02-11T01:39:25.127Z,96611.23
2019-02-11T01:40:26.485Z,96607.75
2019-02-11T01:41:27.899Z,96613.08
2019-02-11T01:42:29.137Z,96609.59
2019-02-11T01:43:36.135Z,96613.36
2019-02-11T01:44:35.613Z,96613.36
2019-02-11T01:45:36.855Z,96606.14
2019-02-11T01:46:38.139Z,96606.14
2019-02-11T01:47:41.485Z,96607.75
2019-02-11T01:48:43.187Z,96607.75
2019-02-11T01:49:44.566Z,96606.42
2019-02-11T01:50:45.884Z,96598.94
2019-02-11T01:51:47.419Z,96604.81
2019-02-11T01:52:48.679Z,96599.98
2019-02-11T01:53:50.015Z,96599.48
2019-02-11T01:54:51.460Z,96600.81
2019-02-11T01:55:52.809Z,96600.81
2019-02-11T01:56:54.037Z,96594.15
2019-02-11T01:57:55.297Z,96591.77
2019-02-11T01:58:56.553Z,96593.09
2019-02-11T01:59:58.203Z,96590.15
2019-02-11T02:00:59.422Z,96590.15
2019-02-11T02:02:00.840Z,96598.14
2019-02-11T02:03:02.508Z,96593.87
2019-02-11T02:04:03.762Z,96590.15
2019-02-11T02:05:06.667Z,96593.87
2019-02-11T02:06:09.138Z,96593.87
2019-02-11T02:07:10.515Z,96584.55
2019-02-11T02:08:11.856Z,96593.87
2019-02-11T02:09:13.497Z,96593.87
2019-02-11T02:10:14.928Z,96597.87
2019-02-11T02:11:16.301Z,96596.53
2019-02-11T02:12:17.530Z,96597.87
2019-02-11T02:13:18.811Z,96594.66
2019-02-11T02:14:20.223Z,96594.66
2019-02-11T02:15:22.656Z,96600.81
2019-02-11T02:16:24.032Z,96590.38
2019-02-11T02:17:27.658Z,96591.99
2019-02-11T02:18:28.895Z,96591.99
2019-02-11T02:19:30.138Z,96590.15
2019-02-11T02:20:31.436Z,96591.99
2019-02-11T02:21:32.796Z,96588.82
2019-02-11T02:22:34.317Z,96586.44
2019-02-11T02:23:35.665Z,96589.09
2019-02-11T02:24:37.181Z,96591.77
2019-02-11T02:25:38.518Z,96591.53
2019-02-11T02:26:39.789Z,96585.92
2019-02-11T02:27:41.093Z,96585.66
2019-02-11T02:28:42.418Z,96579.27
2019-02-11T02:29:43.734Z,96579.27
2019-02-11T02:30:44.997Z,96584.05
2019-02-11T02:31:46.297Z,96573.93
2019-02-11T02:32:47.938Z,96580.05
2019-02-11T02:33:49.389Z,96573.11
2019-02-11T02:34:51.137Z,96582.72
2019-02-11T02:35:52.590Z,96576.88
2019-02-11T02:36:54.150Z,96578.72
2019-02-11T02:37:55.427Z,96571.50
2019-02-11T02:38:56.842Z,96571.50
2019-02-11T02:39:58.113Z,96572.05
2019-02-11T02:40:59.381Z,96572.05
2019-02-11T02:42:00.875Z,96569.98
2019-02-11T02:43:02.321Z,96576.64
2019-02-11T02:44:03.765Z,96580.92
2019-02-11T02:45:07.310Z,96580.92
2019-02-11T02:46:08.579Z,96570.54
2019-02-11T02:47:10.003Z,96567.59
2019-02-11T02:48:11.326Z,96571.05
2019-02-11T02:49:12.567Z,96570.00
2019-02-11T02:50:14.225Z,96577.48
2019-02-11T02:51:15.787Z,96575.92
2019-02-11T02:52:16.999Z,96575.92
2019-02-11T02:53:18.429Z,96570.05
2019-02-11T02:54:19.858Z,96572.20
2019-02-11T02:55:22.518Z,96574.36
2019-02-11T02:56:23.930Z,96575.15
2019-02-11T02:57:25.176Z,96573.81
2019-02-11T02:58:26.558Z,96573.81
2019-02-11T02:59:27.804Z,96578.91
2019-02-11T03:00:29.167Z,96578.91
2019-02-11T03:01:30.446Z,96581.58
2019-02-11T03:02:31.819Z,96582.68
2019-02-11T03:03:33.196Z,96582.68
2019-02-11T03:04:34.554Z,96576.81
2019-02-11T03:05:36.281Z,96582.14
2019-02-11T03:06:37.649Z,96583.23
2019-02-11T03:07:38.927Z,96588.06
2019-02-11T03:08:40.782Z,96579.52
2019-02-11T03:09:42.473Z,96582.78
2019-02-11T03:10:44.749Z,96584.63
2019-02-11T03:11:46.006Z,96570.41
2019-02-11T03:12:47.280Z,96581.67
2019-02-11T03:13:48.753Z,96581.67
2019-02-11T03:14:50.005Z,96577.91
2019-02-11T03:15:51.610Z,96579.75
2019-02-11T03:16:53.083Z,96586.42
2019-02-11T03:17:54.487Z,96586.42
2019-02-11T03:18:55.964Z,96587.75
2019-02-11T03:19:58.418Z,96587.47
2019-02-11T03:20:59.932Z,96586.14
2019-02-11T03:22:01.166Z,96586.14
2019-02-11T03:23:02.550Z,96587.19
2019-02-11T03:24:04.234Z,96587.19
2019-02-11T03:25:06.791Z,96590.91
2019-02-11T03:26:08.225Z,96591.96
2019-02-11T03:27:09.510Z,96587.69
2019-02-11T03:28:10.973Z,96587.42
2019-02-11T03:29:12.302Z,96583.14
2019-02-11T03:30:13.565Z,96586.35
2019-02-11T03:31:15.023Z,96583.69
2019-02-11T03:32:16.489Z,96587.91
2019-02-11T03:33:17.770Z,96591.38
2019-02-11T03:34:19.164Z,96587.09
2019-02-11T03:35:20.583Z,96587.09
2019-02-11T03:36:21.854Z,96584.42
2019-02-11T03:37:23.293Z,96582.81
2019-02-11T03:38:24.571Z,96581.20
2019-02-11T03:39:25.849Z,96581.20
2019-02-11T03:40:27.073Z,96579.05
2019-02-11T03:41:28.594Z,96581.20
2019-02-11T03:42:30.215Z,96581.99
2019-02-11T03:43:31.519Z,96585.48
2019-02-11T03:44:32.979Z,96581.20
2019-02-11T03:45:34.447Z,96584.14
2019-02-11T03:46:35.765Z,96582.81
2019-02-11T03:47:37.208Z,96582.81
2019-02-11T03:48:38.541Z,96592.42
2019-02-11T03:49:39.905Z,96590.58
2019-02-11T03:50:41.380Z,96593.30
2019-02-11T03:51:42.951Z,96589.58
2019-02-11T03:52:44.279Z,96594.67
2019-02-11T03:53:45.823Z,96590.13
2019-02-11T03:54:47.152Z,96594.95
2019-02-11T03:55:48.484Z,96599.47
2019-02-11T03:56:49.820Z,96598.72
2019-02-11T03:57:51.314Z,96597.39
2019-02-11T03:58:52.610Z,96601.95
2019-02-11T03:59:53.862Z,96598.23
2019-02-11T04:00:55.140Z,96595.05
2019-02-11T04:01:56.654Z,96591.34
2019-02-11T04:02:58.093Z,96600.16
2019-02-11T04:03:59.366Z,96599.33
2019-02-11T04:05:00.776Z,96599.33
2019-02-11T04:06:02.030Z,96601.48
2019-02-11T04:07:03.278Z,96600.94
2019-02-11T04:08:04.726Z,96606.81
2019-02-11T04:09:06.009Z,96606.81
2019-02-11T04:10:09.006Z,96601.17
2019-02-11T04:11:10.371Z,96603.56
2019-02-11T04:12:11.933Z,96609.44
2019-02-11T04:13:13.450Z,96609.44
2019-02-11T04:14:24.128Z,96610.95
2019-02-11T04:15:18.115Z,96610.95
2019-02-11T04:16:19.389Z,96607.19
2019-02-11T04:17:20.635Z,96618.07
2019-02-11T04:18:21.905Z,96612.23
2019-02-11T04:19:23.209Z,96612.23
2019-02-11T04:20:24.574Z,96612.23
2019-02-11T04:21:25.859Z,96596.75
2019-02-11T04:22:27.339Z,96596.75
2019-02-11T04:23:28.829Z,96606.63
2019-02-11T04:24:30.195Z,96606.63
2019-02-11T04:25:31.741Z,96604.75
2019-02-11T04:26:33.265Z,96607.41
2019-02-11T04:27:34.565Z,96609.29
2019-02-11T04:28:35.901Z,96609.29
2019-02-11T04:29:37.451Z,96602.34
2019-02-11T04:30:38.703Z,96609.00
2019-02-11T04:31:40.209Z,96606.63
2019-02-11T04:32:41.576Z,96606.63
2019-02-11T04:33:42.857Z,96595.19
2019-02-11T04:34:44.324Z,96600.80
2019-02-11T04:35:45.819Z,96592.80
2019-02-11T04:36:47.103Z,96587.75
2019-02-11T04:37:48.529Z,96592.02
2019-02-11T04:38:50.098Z,96596.80
2019-02-11T04:39:51.373Z,96596.80
2019-02-11T04:40:52.653Z,96595.19
2019-02-11T04:41:53.931Z,96595.19
2019-02-11T04:42:55.324Z,96597.86
2019-02-11T04:43:56.601Z,96597.86
2019-02-11T04:44:57.923Z,96593.06
2019-02-11T04:45:59.893Z,96586.91
2019-02-11T04:47:01.190Z,96581.30
2019-02-11T04:48:02.493Z,96590.62
2019-02-11T04:49:04.005Z,96594.63
2019-02-11T04:50:07.557Z,96589.53
2019-02-11T04:51:08.992Z,96589.81
2019-02-11T04:52:10.297Z,96588.47
2019-02-11T04:53:11.542Z,96586.35
2019-02-11T04:54:13.699Z,96586.35
2019-02-11T04:55:15.013Z,96580.70
2019-02-11T04:56:16.248Z,96588.20
2019-02-11T04:57:17.482Z,96582.35
2019-02-11T04:58:18.959Z,96581.81
2019-02-11T04:59:20.294Z,96581.81
2019-02-11T05:00:21.790Z,96586.35
2019-02-11T05:01:23.312Z,96591.96
2019-02-11T05:02:24.677Z,96591.96
2019-02-11T05:03:26.104Z,96593.80
2019-02-11T05:04:27.371Z,96595.95
2019-02-11T05:05:28.608Z,96593.30
2019-02-11T05:06:29.937Z,96592.75
2019-02-11T05:07:31.236Z,96589.58
2019-02-11T05:08:32.738Z,96589.58
2019-02-11T05:09:34.046Z,96595.19
2019-02-11T05:10:35.293Z,96595.19
2019-02-11T05:11:36.828Z,96594.91
2019-02-11T05:12:38.160Z,96594.63
2019-02-11T05:13:39.492Z,96593.80
2019-02-11T05:14:43.846Z,96587.69
2019-02-11T05:15:44.108Z,96586.04
2019-02-11T05:16:46.150Z,96587.09
2019-02-11T05:17:47.426Z,96586.81
2019-02-11T05:18:48.806Z,96586.81
2019-02-11T05:19:50.074Z,96584.14
2019-02-11T05:20:51.520Z,96591.86
2019-02-11T05:21:54.878Z,96593.19
2019-02-11T05:22:56.471Z,96592.91
2019-02-11T05:23:57.942Z,96588.38
2019-02-11T05:25:00.431Z,96588.38
2019-02-11T05:26:01.714Z,96586.77
2019-02-11T05:27:03.155Z,96586.77
2019-02-11T05:28:04.656Z,96583.05
2019-02-11T05:29:05.922Z,96586.77
2019-02-11T05:30:08.940Z,96585.43
2019-02-11T05:31:10.244Z,96584.33
2019-02-11T05:32:11.472Z,96592.91
2019-02-11T05:33:14.828Z,96592.91
2019-02-11T05:34:17.773Z,96586.48
2019-02-11T05:35:19.083Z,96596.63
2019-02-11T05:36:20.324Z,96595.58
2019-02-11T05:37:21.596Z,96603.58
2019-02-11T05:38:22.905Z,96590.77
2019-02-11T05:39:24.415Z,96586.77
2019-02-11T05:40:25.909Z,96595.58
2019-02-11T05:41:27.316Z,96595.58
2019-02-11T05:42:28.749Z,96595.58
2019-02-11T05:43:30.201Z,96597.19
2019-02-11T05:44:32.347Z,96597.19
2019-02-11T05:45:33.615Z,96601.47
2019-02-11T05:46:34.859Z,96605.47
2019-02-11T05:47:36.278Z,96606.52
2019-02-11T05:48:37.567Z,96605.19
2019-02-11T05:49:38.896Z,96605.19
2019-02-11T05:50:40.224Z,96602.24
2019-02-11T05:51:41.756Z,96603.58
2019-02-11T05:52:43.079Z,96606.47
2019-02-11T05:53:44.422Z,96608.31
2019-02-11T05:54:45.796Z,96605.14
2019-02-11T05:55:47.310Z,96615.80
2019-02-11T05:56:48.564Z,96615.80
2019-02-11T05:57:49.942Z,96622.74
2019-02-11T05:58:52.002Z,96619.02
2019-02-11T05:59:53.282Z,96617.18
2019-02-11T06:00:57.022Z,96622.52
2019-02-11T06:01:58.277Z,96625.45
2019-02-11T06:02:59.590Z,96627.56
2019-02-11T06:04:01.094Z,96627.56
2019-02-11T06:05:04.084Z,96630.23
2019-02-11T06:06:05.528Z,96630.45
2019-02-11T06:07:06.896Z,96632.61
2019-02-11T06:08:08.285Z,96632.61
2019-02-11T06:09:09.537Z,96628.61
2019-02-11T06:10:10.810Z,96632.89
2019-02-11T06:11:12.182Z,96631.28
2019-02-11T06:12:16.351Z,96631.28
2019-02-11T06:13:18.457Z,96632.61
2019-02-11T06:14:20.214Z,96629.63
2019-02-11T06:15:21.681Z,96634.97
2019-02-11T06:16:23.100Z,96634.97
2019-02-11T06:17:24.649Z,96640.61
2019-02-11T06:18:25.980Z,96640.30
2019-02-11T06:19:27.376Z,96640.61
2019-02-11T06:20:28.800Z,96644.30
2019-02-11T06:21:30.118Z,96642.96
2019-02-11T06:22:31.409Z,96644.30
2019-02-11T06:23:32.968Z,96650.95
2019-02-11T06:24:34.348Z,96653.11
2019-02-11T06:25:35.672Z,96659.49
2019-02-11T06:26:36.969Z,96659.49
2019-02-11T06:27:40.103Z,96660.34
2019-02-11T06:28:41.600Z,96649.45
2019-02-11T06:29:43.007Z,96659.65
2019-02-11T06:30:44.556Z,96652.72
2019-02-11T06:31:45.962Z,96654.87
2019-02-11T06:32:47.203Z,96663.16
2019-02-11T06:33:48.857Z,96667.70
2019-02-11T06:34:50.190Z,96673.54
2019-02-11T06:35:51.495Z,96673.54
2019-02-11T06:36:53.221Z,96658.06
2019-02-11T06:37:54.629Z,96658.31
2019-02-11T06:38:56.127Z,96658.31
2019-02-11T06:39:57.380Z,96658.00
2019-02-11T06:40:58.633Z,96661.21
2019-02-11T06:42:00.076Z,96661.44
2019-02-11T06:43:01.386Z,96668.66
2019-02-11T06:44:03.034Z,96665.95
2019-02-11T06:45:12.748Z,96665.95
2019-02-11T06:46:09.854Z,96658.49
2019-02-11T06:47:11.287Z,96658.72
2019-02-11T06:48:12.599Z,96663.27
2019-02-11T06:49:13.897Z,96661.93
2019-02-11T06:50:15.160Z,96662.95
2019-02-11T06:51:17.441Z,96657.62
2019-02-11T06:52:18.720Z,96658.95
2019-02-11T06:53:20.049Z,96670.95
2019-02-11T06:54:21.386Z,96675.99
2019-02-11T06:55:23.132Z,96677.92
2019-02-11T06:56:24.436Z,96679.25
2019-02-11T06:57:25.759Z,96680.59
2019-02-11T06:58:27.490Z,96684.04
2019-02-11T06:59:28.788Z,96684.04
2019-02-11T07:00:30.056Z,96690.98
2019-02-11T07:01:33.219Z,96682.48
2019-02-11T07:02:34.458Z,96686.48
2019-02-11T07:03:35.742Z,96685.14
2019-02-11T07:04:37.092Z,96685.14
2019-02-11T07:05:38.500Z,96685.14
2019-02-11T07:06:39.825Z,96684.59
2019-02-11T07:07:41.179Z,96688.58
2019-02-11T07:08:42.688Z,96685.91
2019-02-11T07:09:43.954Z,96680.59
2019-02-11T07:10:45.312Z,96679.77
2019-02-11T07:11:46.825Z,96679.25
2019-02-11T07:12:48.124Z,96683.77
2019-02-11T07:13:49.420Z,96682.14
2019-02-11T07:14:50.864Z,96684.59
2019-02-11T07:15:52.203Z,96684.59
2019-02-11T07:16:53.458Z,96691.53
2019-02-11T07:17:54.871Z,96687.59
2019-02-11T07:18:56.173Z,96690.81
2019-02-11T07:19:57.430Z,96690.81
2019-02-11T07:20:58.735Z,96694.86
2019-02-11T07:22:00.058Z,96694.86
2019-02-11T07:23:01.625Z,96697.81
2019-02-11T07:24:02.899Z,96690.05
2019-02-11T07:25:05.919Z,96686.36
2019-02-11T07:26:07.194Z,96693.81
2019-02-11T07:27:08.518Z,96693.81
2019-02-11T07:28:09.846Z,96696.20
2019-02-11T07:29:11.126Z,96702.63
2019-02-11T07:30:12.690Z,96702.63
2019-02-11T07:31:14.153Z,96708.47
2019-02-11T07:32:15.440Z,96715.14
2019-02-11T07:33:18.497Z,96720.47
2019-02-11T07:34:19.811Z,96713.80
2019-02-11T07:35:21.129Z,96708.19
2019-02-11T07:36:22.635Z,96710.34
2019-02-11T07:37:24.241Z,96707.91
2019-02-11T07:38:25.510Z,96710.03
2019-02-11T07:39:26.947Z,96707.91
2019-02-11T07:40:28.281Z,96707.91
2019-02-11T07:41:31.487Z,96711.91
2019-02-11T07:42:34.948Z,96711.91
2019-02-11T07:43:41.017Z,96711.91
2019-02-11T07:44:43.849Z,96707.09
2019-02-11T07:45:50.157Z,96713.52
2019-02-11T07:46:51.516Z,96702.58
2019-02-11T07:47:53.064Z,96702.58
2019-02-11T07:48:54.346Z,96709.24
2019-02-11T07:49:55.633Z,96710.86
2019-02-11T07:50:57.125Z,96710.86
2019-02-11T07:51:58.598Z,96713.52
2019-02-11T07:53:00.006Z,96710.86
2019-02-11T07:54:01.370Z,96710.86
2019-02-11T07:55:03.960Z,96710.86
2019-02-11T07:56:05.276Z,96711.68
2019-02-11T07:57:06.559Z,96717.02
2019-02-11T07:58:07.834Z,96720.47
2019-02-11T07:59:09.085Z,96720.47
2019-02-11T08:00:10.460Z,96721.30
2019-02-11T08:01:11.735Z,96719.42
2019-02-11T08:02:13.343Z,96719.95
2019-02-11T08:03:14.745Z,96723.95
2019-02-11T08:04:15.999Z,96723.95
2019-02-11T08:05:17.265Z,96726.08
2019-02-11T08:06:18.682Z,96731.41
2019-02-11T08:07:19.934Z,96731.41
2019-02-11T08:08:21.267Z,96737.03
2019-02-11T08:09:23.578Z,96733.57
2019-02-11T08:10:24.918Z,96740.74
2019-02-11T08:11:26.495Z,96737.03
2019-02-11T08:12:28.230Z,96741.34
2019-02-11T08:13:30.638Z,96741.34
2019-02-11T08:14:31.909Z,96735.47
2019-02-11T08:15:38.685Z,96747.74
2019-02-11T08:16:36.988Z,96753.08
2019-02-11T08:17:38.470Z,96753.08
2019-02-11T08:18:40.070Z,96753.90
2019-02-11T08:19:41.359Z,96752.56
2019-02-11T08:20:42.972Z,96755.23
2019-02-11T08:21:44.324Z,96757.90
2019-02-11T08:22:45.711Z,96756.28
2019-02-11T08:23:46.942Z,96753.90
2019-02-11T08:24:48.199Z,96753.90
2019-02-11T08:25:49.561Z,96758.72
2019-02-11T08:26:50.976Z,96758.72
2019-02-11T08:27:52.443Z,96758.72
2019-02-11T08:28:53.917Z,96758.72
2019-02-11T08:29:57.275Z,96762.18
2019-02-11T08:30:58.734Z,96769.44
2019-02-11T08:32:00.173Z,96771.56
2019-02-11T08:33:03.041Z,96768.39
2019-02-11T08:34:04.487Z,96775.05
2019-02-11T08:35:06.724Z,96767.84
2019-02-11T08:36:08.079Z,96773.49
2019-02-11T08:37:09.346Z,96777.49
2019-02-11T08:38:10.748Z,96780.95
2019-02-11T08:39:13.261Z,96772.45
2019-02-11T08:40:14.644Z,96772.45
2019-02-11T08:41:16.099Z,96773.78
2019-02-11T08:42:17.548Z,96779.90
2019-02-11T08:43:19.103Z,96773.23
2019-02-11T08:44:20.366Z,96769.23
2019-02-11T08:45:21.801Z,96769.23
2019-02-11T08:46:23.227Z,96764.73
2019-02-11T08:47:24.900Z,96765.83
2019-02-11T08:48:26.472Z,96765.83
2019-02-11T08:49:27.775Z,96772.78
2019-02-11T08:50:29.120Z,96772.78
2019-02-11T08:51:30.559Z,96768.78
2019-02-11T08:52:31.899Z,96771.45
2019-02-11T08:53:33.216Z,96771.45
2019-02-11T08:54:34.742Z,96764.78
2019-02-11T08:55:36.007Z,96766.91
2019-02-11T08:56:37.562Z,96772.55
2019-02-11T08:57:39.908Z,96771.22
2019-02-11T08:58:42.284Z,96771.22
2019-02-11T08:59:43.656Z,96778.39
2019-02-11T09:00:44.966Z,96776.30
2019-02-11T09:01:46.241Z,96776.30
2019-02-11T09:02:47.530Z,96776.30
2019-02-11T09:03:48.829Z,96772.61
2019-02-11T09:04:50.238Z,96779.56
2019-02-11T09:05:53.185Z,96779.02
2019-02-11T09:06:54.566Z,96778.50
2019-02-11T09:07:56.050Z,96778.50
2019-02-11T09:08:58.508Z,96781.99
2019-02-11T09:09:59.958Z,96781.99
2019-02-11T09:11:01.293Z,96787.61
2019-02-11T09:12:02.844Z,96787.61
2019-02-11T09:13:04.127Z,96791.34
2019-02-11T09:14:05.402Z,96791.34
2019-02-11T09:15:09.343Z,96785.00
2019-02-11T09:16:12.043Z,96783.66
2019-02-11T09:17:13.659Z,96781.28
2019-02-11T09:18:15.085Z,96781.28
2019-02-11T09:19:16.388Z,96776.51
2019-02-11T09:20:17.823Z,96777.84
2019-02-11T09:21:19.149Z,96779.72
2019-02-11T09:22:20.697Z,96784.79
2019-02-11T09:23:22.182Z,96785.34
2019-02-11T09:24:23.527Z,96785.61
2019-02-11T09:25:24.869Z,96785.61
2019-02-11T09:26:26.315Z,96792.05
2019-02-11T09:27:27.729Z,96793.39
2019-02-11T09:28:29.387Z,96792.05
2019-02-11T09:29:30.670Z,96805.67
2019-02-11T09:30:32.209Z,96803.00
2019-02-11T09:31:33.483Z,96803.00
2019-02-11T09:32:34.793Z,96797.67
2019-02-11T09:33:36.593Z,96807.28
2019-02-11T09:34:37.997Z,96807.56
2019-02-11T09:35:39.277Z,96807.56
2019-02-11T09:36:42.796Z,96803.88
2019-02-11T09:37:44.090Z,96794.55
2019-02-11T09:38:45.409Z,96803.38
2019-02-11T09:39:46.670Z,96803.88
2019-02-11T09:40:48.064Z,96803.88
2019-02-11T09:41:49.377Z,96807.94
2019-02-11T09:42:51.638Z,96803.42
2019-02-11T09:43:52.940Z,96806.38
2019-02-11T09:44:54.236Z,96806.38
2019-02-11T09:46:03.569Z,96808.81
2019-02-11T09:46:58.938Z,96807.48
2019-02-11T09:48:00.218Z,96807.48
2019-02-11T09:49:01.638Z,96821.38
2019-02-11T09:50:12.362Z,96813.92
2019-02-11T09:51:13.906Z,96818.48
2019-02-11T09:52:15.180Z,96809.97
2019-02-11T09:53:16.446Z,96808.92
2019-02-11T09:54:17.986Z,96808.92
2019-02-11T09:55:22.282Z,96796.92
2019-02-11T09:56:23.755Z,96811.05
2019-02-11T09:57:25.302Z,96804.69
2019-02-11T09:58:26.752Z,96812.09
2019-02-11T09:59:28.020Z,96812.09
2019-02-11T10:00:29.422Z,96818.88
2019-02-11T10:01:30.864Z,96816.75
2019-02-11T10:02:32.171Z,96822.64
2019-02-11T10:03:33.451Z,96817.82
2019-02-11T10:04:35.500Z,96821.59
2019-02-11T10:05:36.799Z,96821.59
2019-02-11T10:06:38.135Z,96812.77
2019-02-11T10:07:39.697Z,96818.70
2019-02-11T10:08:40.946Z,96817.92
2019-02-11T10:09:44.486Z,96822.47
2019-02-11T10:10:46.076Z,96821.93
2019-02-11T10:11:47.442Z,96821.93
2019-02-11T10:12:48.880Z,96819.26
2019-02-11T10:13:50.388Z,96825.19
2019-02-11T10:14:51.671Z,96830.80
2019-02-11T10:15:53.426Z,96824.14
2019-02-11T10:16:54.687Z,96828.42
2019-02-11T10:17:55.922Z,96828.42
2019-02-11T10:18:57.445Z,96828.42
2019-02-11T10:19:58.787Z,96828.42
2019-02-11T10:21:00.036Z,96834.32
2019-02-11T10:22:01.367Z,96836.70
2019-02-11T10:23:03.011Z,96836.20
2019-02-11T10:24:04.287Z,96836.98
2019-02-11T10:25:11.727Z,96837.27
2019-02-11T10:26:13.246Z,96837.27
2019-02-11T10:27:14.673Z,96825.03
2019-02-11T10:28:16.022Z,96825.03
2019-02-11T10:29:17.343Z,96826.09
2019-02-11T10:30:18.602Z,96825.86
2019-02-11T10:31:19.834Z,96821.31
2019-02-11T10:32:21.218Z,96811.46
2019-02-11T10:33:22.703Z,96811.46
2019-02-11T10:34:23.963Z,96806.41
2019-02-11T10:35:25.721Z,96814.41
2019-02-11T10:36:28.610Z,96822.42
2019-02-11T10:37:29.890Z,96818.47
2019-02-11T10:38:36.476Z,96816.34
2019-02-11T10:39:34.810Z,96820.63
2019-02-11T10:40:39.200Z,96823.30
2019-02-11T10:41:40.451Z,96827.30
2019-02-11T10:42:41.784Z,96827.30
2019-02-11T10:43:43.052Z,96825.96
2019-02-11T10:44:44.378Z,96821.70
2019-02-11T10:45:45.856Z,96820.34
2019-02-11T10:46:47.241Z,96820.34
2019-02-11T10:47:48.720Z,96830.24
2019-02-11T10:48:50.187Z,96817.69
2019-02-11T10:49:51.649Z,96838.81
2019-02-11T10:50:54.233Z,96842.81
2019-02-11T10:51:55.806Z,96837.76
2019-02-11T10:52:57.282Z,96828.96
2019-02-11T10:53:58.545Z,96829.75
2019-02-11T10:54:59.840Z,96831.58
2019-02-11T10:56:01.289Z,96842.64
2019-02-11T10:57:02.585Z,96827.95
2019-02-11T10:58:04.305Z,96839.45
2019-02-11T10:59:07.751Z,96839.45
2019-02-11T11:00:20.214Z,96843.20
2019-02-11T11:01:21.551Z,96843.20
2019-02-11T11:02:24.628Z,96834.40
2019-02-11T11:03:25.996Z,96832.78
2019-02-11T11:04:27.289Z,96845.59
2019-02-11T11:05:28.971Z,96854.92
2019-02-11T11:06:30.399Z,96854.92
2019-02-11T11:07:31.646Z,96852.85
2019-02-11T11:08:33.187Z,96849.12
2019-02-11T11:09:34.506Z,96849.12
2019-02-11T11:10:37.399Z,96855.52
2019-02-11T11:11:38.993Z,96854.19
2019-02-11T11:12:40.552Z,96856.86
2019-02-11T11:13:41.918Z,96852.54
2019-02-11T11:14:43.515Z,96859.21
2019-02-11T11:15:44.938Z,96863.77
2019-02-11T11:16:46.532Z,96856.27
2019-02-11T11:17:48.131Z,96861.59
2019-02-11T11:18:49.466Z,96865.60
2019-02-11T11:19:50.917Z,96865.60
2019-02-11T11:20:52.630Z,96873.61
2019-02-11T11:21:53.918Z,96863.70
2019-02-11T11:22:55.236Z,96863.70
2019-02-11T11:23:56.871Z,96871.72
2019-02-11T11:24:58.140Z,96868.17
2019-02-11T11:25:59.626Z,96871.38
2019-02-11T11:27:01.734Z,96871.06
2019-02-11T11:28:03.221Z,96865.98
2019-02-11T11:29:05.994Z,96877.17
2019-02-11T11:30:14.843Z,96868.61
2019-02-11T11:31:16.263Z,96866.45
2019-02-11T11:32:17.672Z,96871.50
2019-02-11T11:33:19.085Z,96876.55
2019-02-11T11:34:20.350Z,96878.13
2019-02-11T11:35:22.018Z,96879.97
2019-02-11T11:36:23.680Z,96881.30
2019-02-11T11:37:25.572Z,96885.30
2019-02-11T11:38:26.818Z,96886.35
2019-02-11T11:39:28.154Z,96886.35
2019-02-11T11:40:29.526Z,96891.69
2019-02-11T11:41:31.082Z,96886.07
2019-02-11T11:42:32.473Z,96888.45
2019-02-11T11:43:33.767Z,96888.45
2019-02-11T11:44:35.219Z,96892.45
2019-02-11T11:45:36.600Z,96897.80
2019-02-11T11:46:46.768Z,96895.36
2019-02-11T11:47:42.314Z,96900.92
2019-02-11T11:48:43.835Z,96904.13
2019-02-11T11:49:45.237Z,96911.31
2019-02-11T11:50:46.535Z,96901.69
2019-02-11T11:51:47.947Z,96903.53
2019-02-11T11:52:49.467Z,96912.08
2019-02-11T11:53:50.759Z,96907.79
2019-02-11T11:54:52.145Z,96900.80
2019-02-11T11:55:55.069Z,96899.47
2019-02-11T11:56:59.300Z,96906.97
2019-02-11T11:57:59.996Z,96902.68
2019-02-11T11:59:02.582Z,96905.35
2019-02-11T12:00:16.156Z,96905.35
2019-02-11T12:01:19.307Z,96906.41
2019-02-11T12:02:21.286Z,96912.79
2019-02-11T12:03:22.551Z,96916.25
2019-02-11T12:04:23.831Z,96912.53